UPSVAC Airport Information Service

Raleigh-Durham International Airport

ICAO: KRDU Country: United States
Latitude: 35.8776 Longitude: -78.7874
Latest Arrival : UPS575 (KSDF-KRDU) Latest Departure : UPS576 (KRDU-KSDF)


WX CaptureLIVE
Data provided by noaa.gov | Fetched at 10:13:32

METAR : KRDU 270951Z 21003KT 1/8SM BCFG BR SCT001 SCT005 OVC130 07/07 A2996 RMK AO2 SFC VIS 1 1/2 SLP147 T00720067 $

TAF : KRDU 270538Z 2706/2806 00000KT 1/4SM FG OVC001 TEMPO 2706/2709 1SM BR BKN002 FM270900 00000KT 4SM BR SCT003 BKN100 TEMPO 2709/2712 1SM BR BKN003 OVC100 FM271200 VRB03KT 4SM BR FEW005 BKN100 FM271400 08004KT P6SM VCSH BKN020 BKN120 FM272300 06010G17KT 5SM -RA BR OVC018


Runway Data for KRDU
Data provided by openaviationdata.com

Runway ID Mag Var Hdg Length Elevation Surface ILS Freq ILS Id ILS Slope
05L -8 53° 10001 ft 435 ft Concrete 109.1 IGKK 3
05R -8 53° 7501 ft 435 ft Asphalt 109.5 IRDU 3
14 -8 143° 3570 ft 435 ft Asphalt -- -- --
23L -8 233° 7501 ft 435 ft Asphalt 108.5 ILEI 3
23R -8 233° 10001 ft 435 ft Concrete 111.7 IDMP 3
32 -8 323° 3570 ft 435 ft Asphalt -- -- --

Raleigh-Durham International Airport, United States
Use only for reference purposes



Not for navigational purposes.